Terminal Aerodrome Forecast
Issued by NWS Memphis, TN

Home | Current Version | Previous Version | Text Only | Print | Product List | Glossary On
Versions: 1 2 3 4 5 6 7 8 9 10 11 12 13 14 15
549
FTUS44 KMEG 271252 AAA
TAFJBR
TAF AMD
KJBR 271252Z 2713/2812 VRB02KT P6SM SCT005 BKN250
      TEMPO 2713/2715 OVC008
     FM271600 14005KT P6SM VCTS SCT040CB BKN100 BKN250
     FM280100 VRB02KT P6SM BKN250=

USA.gov is the U.S. government's official web portal to all federal, state and local government web resources and services.